Flynn, Texas
Current Conditions -  °F | °C
As of 5:55 AM on Saturday 22 Nov 2014 (Local Time) from KCFD Reporting Station
Overcast Overcast  
Wind Chill: 61°   Ceiling: 600
Heat Index: 61°   Visibility: 7mi
Dew Point: 60°   Wind: 9mph
Humidity: 96%   Direction: 110°ESE
Pressure: 30.07"   Gusts: 17mph
Location:  31.15°N, 96.12°W
Report Text: KCFD 221155Z AUTO 11008G15KT 7SM OVC006 16/15 A3007 RMK AO2 70001 T01600153 10170 20157
Loading
Personal Weather Stations






























Interactive Weather Map New forecast layout! Learn more

10-Day Weather Forecast

Advertisements
Track Severe Weather on mobile